createdAt,value
2018-10-03T00:00:08.361Z,12.46
2018-10-03T00:01:08.344Z,12.37
2018-10-03T00:02:08.330Z,12.41
2018-10-03T00:03:08.343Z,12.34
2018-10-03T00:04:08.313Z,12.42
2018-10-03T00:05:08.313Z,12.45
2018-10-03T00:06:08.310Z,12.39
2018-10-03T00:07:08.276Z,12.39
2018-10-03T00:08:08.271Z,12.46
2018-10-03T00:09:08.273Z,12.37
2018-10-03T00:10:08.241Z,12.42
2018-10-03T00:11:08.240Z,12.38
2018-10-03T00:12:08.225Z,12.41
2018-10-03T00:13:08.216Z,12.23
2018-10-03T00:14:08.218Z,12.29
2018-10-03T00:15:08.189Z,12.28
2018-10-03T00:16:08.180Z,12.19
2018-10-03T00:17:08.172Z,12.29
2018-10-03T00:18:08.184Z,12.28
2018-10-03T00:19:08.145Z,12.24
2018-10-03T00:20:08.135Z,12.16
2018-10-03T00:21:08.137Z,12.17
2018-10-03T00:22:08.115Z,12.19
2018-10-03T00:23:08.122Z,12.12
2018-10-03T00:24:08.093Z,12.17
2018-10-03T00:25:08.157Z,12.13
2018-10-03T00:26:08.090Z,12.16
2018-10-03T00:27:08.115Z,12.14
2018-10-03T00:28:08.060Z,12.12
2018-10-03T00:29:08.034Z,12.09
2018-10-03T00:30:08.024Z,12.16
2018-10-03T00:31:08.032Z,12.13
2018-10-03T00:32:08.008Z,12.05
2018-10-03T00:33:07.989Z,12.12
2018-10-03T00:34:07.981Z,12.10
2018-10-03T00:35:07.973Z,12.16
2018-10-03T00:36:07.964Z,12.13
2018-10-03T00:37:07.965Z,12.09
2018-10-03T00:38:07.943Z,12.04
2018-10-03T00:39:07.926Z,11.96
2018-10-03T00:40:07.919Z,11.96
2018-10-03T00:41:07.905Z,12.01
2018-10-03T00:42:07.914Z,11.99
2018-10-03T00:43:07.887Z,12.04
2018-10-03T00:44:07.877Z,12.12
2018-10-03T00:45:07.869Z,12.05
2018-10-03T00:46:07.862Z,11.99
2018-10-03T00:47:07.838Z,12.09
2018-10-03T00:48:07.835Z,12.05
2018-10-03T00:49:07.825Z,12.10
2018-10-03T00:50:07.809Z,12.05
2018-10-03T00:51:07.809Z,12.12
2018-10-03T00:52:07.780Z,12.05
2018-10-03T00:53:07.781Z,12.12
2018-10-03T00:54:07.764Z,12.05
2018-10-03T00:55:07.757Z,12.02
2018-10-03T00:56:07.746Z,11.94
2018-10-03T00:57:07.741Z,11.99
2018-10-03T00:58:07.750Z,12.02
2018-10-03T00:59:07.709Z,11.98
2018-10-03T01:00:07.693Z,11.98
2018-10-03T01:01:07.684Z,11.95
2018-10-03T01:02:07.676Z,11.94
2018-10-03T01:03:07.668Z,11.94
2018-10-03T01:04:07.679Z,11.95
2018-10-03T01:05:07.640Z,11.94
2018-10-03T01:06:07.629Z,11.88
2018-10-03T01:07:07.622Z,11.85
2018-10-03T01:08:07.617Z,11.94
2018-10-03T01:09:07.607Z,11.98
2018-10-03T01:10:07.601Z,11.95
2018-10-03T01:11:07.578Z,11.83
2018-10-03T01:12:07.562Z,11.82
2018-10-03T01:13:07.573Z,11.82
2018-10-03T01:14:07.552Z,11.82
2018-10-03T01:15:07.548Z,11.83
2018-10-03T01:16:07.537Z,11.86
2018-10-03T01:17:07.515Z,11.83
2018-10-03T01:18:07.501Z,11.79
2018-10-03T01:19:07.487Z,11.83
2018-10-03T01:20:07.485Z,11.83
2018-10-03T01:21:07.486Z,11.79
2018-10-03T01:22:07.457Z,11.88
2018-10-03T01:23:07.465Z,11.79
2018-10-03T01:24:07.430Z,11.90
2018-10-03T01:25:07.422Z,11.98
2018-10-03T01:26:07.428Z,12.07
2018-10-03T01:27:07.406Z,12.07
2018-10-03T01:28:07.395Z,12.07
2018-10-03T01:29:07.383Z,12.16
2018-10-03T01:30:07.375Z,12.19
2018-10-03T01:31:07.376Z,12.23
2018-10-03T01:32:07.343Z,12.20
2018-10-03T01:33:07.337Z,12.31
2018-10-03T01:34:07.330Z,12.32
2018-10-03T01:35:07.317Z,12.23
2018-10-03T01:36:07.307Z,12.27
2018-10-03T01:37:07.321Z,12.42
2018-10-03T01:38:07.282Z,12.50
2018-10-03T01:39:07.292Z,12.42
2018-10-03T01:40:07.264Z,12.32
2018-10-03T01:41:07.282Z,12.38
2018-10-03T01:42:07.256Z,12.38
2018-10-03T01:43:07.232Z,12.24
2018-10-03T01:44:07.212Z,12.34
2018-10-03T01:45:07.202Z,12.34
2018-10-03T01:46:07.195Z,12.31
2018-10-03T01:47:07.207Z,12.37
2018-10-03T01:48:07.191Z,12.28
2018-10-03T01:49:07.166Z,12.32
2018-10-03T01:50:07.151Z,12.38
2018-10-03T01:51:07.137Z,12.27
2018-10-03T01:52:07.171Z,12.32
2018-10-03T01:53:07.155Z,12.39
2018-10-03T01:54:07.107Z,12.35
2018-10-03T01:55:07.104Z,12.39
2018-10-03T01:56:07.079Z,12.38
2018-10-03T01:57:07.068Z,12.34
2018-10-03T01:58:07.077Z,12.34
2018-10-03T01:59:07.051Z,12.37
2018-10-03T02:00:07.058Z,12.47
2018-10-03T02:01:07.042Z,12.41
2018-10-03T02:02:07.025Z,12.38
2018-10-03T02:03:07.007Z,12.47
2018-10-03T02:04:07.006Z,12.54
2018-10-03T02:05:07.012Z,12.56
2018-10-03T02:06:06.979Z,12.50
2018-10-03T02:07:06.964Z,12.52
2018-10-03T02:08:06.964Z,12.54
2018-10-03T02:09:06.938Z,12.54
2018-10-03T02:10:06.932Z,12.64
2018-10-03T02:11:06.934Z,12.71
2018-10-03T02:12:06.917Z,12.68
2018-10-03T02:13:06.904Z,12.68
2018-10-03T02:14:06.888Z,12.71
2018-10-03T02:15:06.875Z,12.78
2018-10-03T02:16:06.876Z,12.78
2018-10-03T02:17:06.855Z,12.82
2018-10-03T02:18:06.866Z,12.90
2018-10-03T02:19:06.834Z,12.87
2018-10-03T02:20:06.825Z,12.96
2018-10-03T02:21:06.815Z,13.00
2018-10-03T02:22:06.811Z,12.93
2018-10-03T02:23:06.802Z,12.95
2018-10-03T02:24:06.773Z,13.01
2018-10-03T02:25:06.773Z,12.93
2018-10-03T02:26:06.757Z,12.93
2018-10-03T02:27:06.760Z,12.85
2018-10-03T02:28:06.730Z,12.87
2018-10-03T02:29:06.720Z,12.92
2018-10-03T02:30:06.742Z,12.83
2018-10-03T02:31:06.713Z,12.82
2018-10-03T02:32:06.695Z,12.77
2018-10-03T02:33:06.682Z,12.82
2018-10-03T02:34:06.669Z,12.82
2018-10-03T02:35:06.663Z,12.82
2018-10-03T02:36:06.668Z,12.82
2018-10-03T02:37:06.650Z,12.75
2018-10-03T02:38:06.624Z,12.74
2018-10-03T02:39:06.622Z,12.70
2018-10-03T02:40:06.608Z,12.74
2018-10-03T02:41:06.587Z,12.78
2018-10-03T02:42:06.591Z,12.75
2018-10-03T02:43:06.571Z,12.72
2018-10-03T02:44:06.563Z,12.70
2018-10-03T02:45:06.582Z,12.65
2018-10-03T02:46:06.559Z,12.72
2018-10-03T02:47:06.526Z,12.65
2018-10-03T02:48:06.514Z,12.65
2018-10-03T02:49:06.500Z,12.68
2018-10-03T02:50:06.492Z,12.65
2018-10-03T02:51:06.499Z,12.60
2018-10-03T02:52:06.477Z,12.67
2018-10-03T02:53:06.464Z,12.59
2018-10-03T02:54:06.451Z,12.62
2018-10-03T02:55:06.437Z,12.57
2018-10-03T02:56:06.423Z,12.59
2018-10-03T02:57:06.434Z,12.62
2018-10-03T02:58:06.409Z,12.57
2018-10-03T02:59:06.410Z,12.52
2018-10-03T03:00:06.383Z,12.59
2018-10-03T03:01:06.368Z,12.57
2018-10-03T03:02:06.372Z,12.50
2018-10-03T03:03:06.354Z,12.56
2018-10-03T03:04:06.349Z,12.56
2018-10-03T03:05:06.334Z,12.56
2018-10-03T03:06:06.320Z,12.59
2018-10-03T03:07:06.313Z,12.53
2018-10-03T03:08:06.307Z,12.54
2018-10-03T03:09:06.428Z,12.59
2018-10-03T03:10:06.273Z,12.56
2018-10-03T03:11:06.267Z,12.57
2018-10-03T03:12:06.273Z,12.56
2018-10-03T03:13:06.237Z,12.59
2018-10-03T03:14:06.229Z,12.53
2018-10-03T03:15:06.221Z,12.50
2018-10-03T03:16:06.218Z,12.53
2018-10-03T03:17:06.203Z,12.47
2018-10-03T03:18:06.200Z,12.42
2018-10-03T03:19:06.215Z,12.46
2018-10-03T03:20:06.160Z,12.46
2018-10-03T03:21:06.151Z,12.41
2018-10-03T03:22:06.151Z,12.45
2018-10-03T03:23:06.134Z,12.49
2018-10-03T03:24:06.133Z,12.56
2018-10-03T03:25:06.184Z,12.54
2018-10-03T03:26:06.149Z,12.54
2018-10-03T03:27:06.100Z,12.53
2018-10-03T03:28:06.073Z,12.50
2018-10-03T03:29:06.071Z,12.53
2018-10-03T03:30:06.059Z,12.53
2018-10-03T03:31:06.043Z,12.54
2018-10-03T03:32:06.053Z,12.60
2018-10-03T03:33:06.018Z,12.60
2018-10-03T03:34:06.011Z,12.62
2018-10-03T03:35:06.003Z,12.59
2018-10-03T03:36:06.007Z,12.60
2018-10-03T03:37:06.013Z,12.65
2018-10-03T03:38:05.969Z,12.62
2018-10-03T03:39:05.956Z,12.67
2018-10-03T03:40:05.943Z,12.68
2018-10-03T03:41:05.944Z,12.70
2018-10-03T03:42:05.925Z,12.67
2018-10-03T03:43:05.920Z,12.60
2018-10-03T03:44:05.908Z,12.62
2018-10-03T03:45:05.914Z,12.60
2018-10-03T03:46:05.900Z,12.67
2018-10-03T03:47:05.871Z,12.65
2018-10-03T03:48:05.866Z,12.77
2018-10-03T03:49:05.852Z,12.60
2018-10-03T03:50:05.840Z,12.65
2018-10-03T03:51:05.826Z,12.60
2018-10-03T03:52:05.821Z,12.54
2018-10-03T03:53:05.804Z,12.59
2018-10-03T03:54:05.808Z,12.59
2018-10-03T03:55:05.806Z,12.52
2018-10-03T03:56:05.782Z,12.49
2018-10-03T03:57:05.785Z,12.60
2018-10-03T03:58:05.762Z,12.54
2018-10-03T03:59:05.737Z,12.57
2018-10-03T04:00:05.728Z,12.54
2018-10-03T04:01:05.725Z,12.56
2018-10-03T04:02:05.707Z,12.54
2018-10-03T04:03:05.706Z,12.54
2018-10-03T04:04:05.701Z,12.53
2018-10-03T04:05:05.670Z,12.50
2018-10-03T04:06:05.659Z,12.47
2018-10-03T04:07:05.652Z,12.46
2018-10-03T04:08:05.660Z,12.47
2018-10-03T04:09:05.634Z,12.46
2018-10-03T04:10:05.621Z,12.45
2018-10-03T04:11:05.606Z,12.45
2018-10-03T04:12:05.591Z,12.41
2018-10-03T04:13:05.592Z,12.41
2018-10-03T04:14:05.612Z,12.45
2018-10-03T04:15:05.563Z,12.37
2018-10-03T04:16:05.555Z,12.46
2018-10-03T04:17:05.545Z,12.45
2018-10-03T04:18:05.531Z,12.49
2018-10-03T04:19:05.537Z,12.38
2018-10-03T04:20:05.513Z,12.42
2018-10-03T04:21:05.513Z,12.39
2018-10-03T04:22:05.491Z,12.42
2018-10-03T04:23:05.473Z,12.42
2018-10-03T04:24:05.459Z,12.39
2018-10-03T04:25:05.461Z,12.38
2018-10-03T04:26:05.445Z,12.29
2018-10-03T04:27:05.453Z,12.28
2018-10-03T04:28:05.425Z,12.29
2018-10-03T04:29:05.415Z,12.31
2018-10-03T04:30:05.419Z,12.28
2018-10-03T04:31:05.385Z,12.27
2018-10-03T04:32:05.373Z,12.31
2018-10-03T04:33:05.370Z,12.28
2018-10-03T04:34:05.357Z,12.28
2018-10-03T04:35:05.341Z,12.42
2018-10-03T04:36:05.339Z,12.31
2018-10-03T04:37:05.318Z,12.39
2018-10-03T04:38:05.308Z,12.41
2018-10-03T04:39:05.300Z,12.38
2018-10-03T04:40:05.309Z,12.21
2018-10-03T04:41:05.290Z,12.34
2018-10-03T04:42:05.311Z,12.24
2018-10-03T04:43:05.251Z,12.42
2018-10-03T04:44:05.243Z,12.37
2018-10-03T04:45:05.234Z,12.41
2018-10-03T04:46:05.219Z,12.45
2018-10-03T04:47:05.215Z,12.42
2018-10-03T04:48:05.215Z,12.45
2018-10-03T04:49:05.246Z,12.45
2018-10-03T04:50:05.194Z,12.37
2018-10-03T04:51:05.172Z,12.29
2018-10-03T04:52:05.160Z,12.45
2018-10-03T04:53:05.158Z,12.32
2018-10-03T04:54:05.143Z,12.31
2018-10-03T04:55:05.119Z,12.23
2018-10-03T04:56:05.111Z,12.28
2018-10-03T04:57:05.103Z,12.31
2018-10-03T04:58:05.106Z,12.39
2018-10-03T04:59:05.085Z,12.41
2018-10-03T05:00:05.080Z,12.24
2018-10-03T05:01:05.064Z,12.34
2018-10-03T05:02:05.051Z,12.28
2018-10-03T05:03:05.067Z,12.37
2018-10-03T05:04:05.023Z,12.41
2018-10-03T05:05:05.015Z,12.21
2018-10-03T05:06:05.041Z,12.39
2018-10-03T05:07:04.991Z,12.34
2018-10-03T05:08:04.992Z,12.27
2018-10-03T05:09:04.969Z,12.32
2018-10-03T05:10:04.955Z,12.47
2018-10-03T05:11:04.953Z,12.41
2018-10-03T05:12:04.938Z,12.41
2018-10-03T05:13:04.949Z,12.34
2018-10-03T05:14:04.919Z,12.37
2018-10-03T05:15:04.915Z,12.29
2018-10-03T05:16:04.897Z,12.31
2018-10-03T05:17:04.886Z,12.34
2018-10-03T05:18:04.880Z,12.28
2018-10-03T05:19:04.867Z,12.23
2018-10-03T05:20:04.851Z,12.24
2018-10-03T05:21:04.838Z,12.29
2018-10-03T05:22:04.827Z,12.21
2018-10-03T05:23:04.865Z,12.24
2018-10-03T05:24:04.809Z,12.34
2018-10-03T05:25:04.799Z,12.27
2018-10-03T05:26:04.804Z,12.27
2018-10-03T05:27:04.773Z,12.28
2018-10-03T05:28:04.781Z,12.27
2018-10-03T05:29:04.752Z,12.24
2018-10-03T05:30:04.737Z,12.23
2018-10-03T05:31:04.735Z,12.12
2018-10-03T05:32:04.720Z,12.20
2018-10-03T05:33:04.732Z,12.16
2018-10-03T05:34:04.709Z,12.16
2018-10-03T05:35:05.466Z,12.16
2018-10-03T05:36:04.694Z,12.20
2018-10-03T05:37:04.665Z,12.14
2018-10-03T05:38:04.671Z,12.23
2018-10-03T05:39:04.638Z,12.19
2018-10-03T05:40:04.896Z,12.19
2018-10-03T05:41:04.618Z,12.20
2018-10-03T05:42:04.606Z,12.13
2018-10-03T05:43:04.614Z,12.27
2018-10-03T05:44:04.588Z,12.23
2018-10-03T05:45:04.582Z,12.24
2018-10-03T05:46:04.570Z,12.29
2018-10-03T05:47:04.551Z,12.21
2018-10-03T05:48:04.553Z,12.23
2018-10-03T05:49:04.546Z,12.17
2018-10-03T05:50:04.527Z,12.17
2018-10-03T05:51:04.518Z,12.13
2018-10-03T05:52:04.502Z,12.13
2018-10-03T05:53:04.502Z,12.17
2018-10-03T05:54:04.503Z,12.21
2018-10-03T05:55:04.478Z,12.17
2018-10-03T05:56:04.457Z,12.16
2018-10-03T05:57:04.447Z,12.14
2018-10-03T05:58:04.450Z,12.19
2018-10-03T05:59:04.443Z,12.07
2018-10-03T06:00:04.414Z,12.19
2018-10-03T06:01:04.403Z,12.13
2018-10-03T06:02:04.385Z,12.07
2018-10-03T06:03:04.388Z,12.13
2018-10-03T06:04:04.370Z,12.10
2018-10-03T06:05:04.371Z,12.14
2018-10-03T06:06:04.353Z,12.16
2018-10-03T06:07:04.346Z,12.16
2018-10-03T06:08:04.325Z,12.07
2018-10-03T06:09:04.375Z,12.13
2018-10-03T06:10:04.320Z,12.04
2018-10-03T06:11:04.287Z,12.05
2018-10-03T06:12:04.370Z,12.09
2018-10-03T06:13:04.283Z,12.04
2018-10-03T06:14:04.292Z,12.16
2018-10-03T06:15:04.323Z,12.20
2018-10-03T06:16:04.238Z,12.13
2018-10-03T06:17:04.267Z,12.24
2018-10-03T06:18:04.229Z,12.27
2018-10-03T06:19:04.202Z,12.31
2018-10-03T06:20:04.203Z,12.38
2018-10-03T06:21:04.181Z,12.41
2018-10-03T06:22:04.253Z,12.35
2018-10-03T06:23:04.231Z,12.45
2018-10-03T06:24:04.180Z,12.50
2018-10-03T06:25:04.136Z,12.68
2018-10-03T06:26:04.121Z,12.72
2018-10-03T06:27:04.120Z,12.78
2018-10-03T06:28:04.153Z,12.89
2018-10-03T06:29:04.096Z,12.83
2018-10-03T06:30:04.095Z,12.71
2018-10-03T06:31:04.075Z,12.67
2018-10-03T06:32:04.071Z,12.74
2018-10-03T06:33:04.047Z,12.74
2018-10-03T06:34:04.040Z,12.70
2018-10-03T06:35:04.061Z,12.79
2018-10-03T06:36:04.022Z,12.85
2018-10-03T06:37:04.027Z,12.89
2018-10-03T06:38:04.002Z,12.93
2018-10-03T06:39:03.982Z,13.04
2018-10-03T06:40:03.974Z,13.17
2018-10-03T06:41:03.981Z,13.33
2018-10-03T06:42:03.970Z,13.49
2018-10-03T06:43:03.943Z,13.57
2018-10-03T06:44:03.926Z,13.59
2018-10-03T06:45:03.953Z,13.57
2018-10-03T06:46:03.913Z,13.73
2018-10-03T06:47:03.900Z,13.63
2018-10-03T06:48:03.913Z,13.55
2018-10-03T06:49:03.879Z,13.51
2018-10-03T06:50:03.868Z,13.51
2018-10-03T06:51:03.859Z,13.57
2018-10-03T06:52:03.870Z,13.45
2018-10-03T06:53:03.874Z,13.52
2018-10-03T06:54:03.815Z,13.70
2018-10-03T06:55:03.812Z,14.00
2018-10-03T06:56:03.813Z,14.15
2018-10-03T06:57:03.851Z,14.39
2018-10-03T06:58:03.775Z,14.37
2018-10-03T06:59:03.798Z,14.47
2018-10-03T07:00:03.779Z,14.78
2018-10-03T07:01:03.746Z,15.02
2018-10-03T07:02:03.747Z,15.17
2018-10-03T07:03:03.717Z,15.28
2018-10-03T07:04:03.708Z,15.17
2018-10-03T07:05:03.698Z,15.14
2018-10-03T07:06:03.705Z,15.35
2018-10-03T07:07:03.693Z,15.31
2018-10-03T07:08:03.668Z,15.14
2018-10-03T07:09:03.658Z,15.25
2018-10-03T07:10:03.651Z,15.38
2018-10-03T07:11:03.637Z,15.36
2018-10-03T07:12:03.664Z,15.10
2018-10-03T07:13:03.675Z,14.84
2018-10-03T07:14:03.604Z,14.75
2018-10-03T07:15:03.586Z,14.89
2018-10-03T07:16:03.584Z,15.13
2018-10-03T07:17:03.620Z,15.02
2018-10-03T07:18:03.669Z,14.86
2018-10-03T07:19:03.549Z,14.78
2018-10-03T07:20:03.546Z,14.62
2018-10-03T07:21:03.539Z,14.51
2018-10-03T07:22:03.516Z,14.36
2018-10-03T07:23:03.518Z,14.21
2018-10-03T07:24:03.498Z,14.20
2018-10-03T07:25:03.479Z,14.12
2018-10-03T07:26:03.513Z,14.12
2018-10-03T07:27:03.497Z,14.04
2018-10-03T07:28:03.465Z,14.00
2018-10-03T07:29:03.435Z,13.92
2018-10-03T07:30:03.473Z,13.84
2018-10-03T07:31:03.438Z,13.73
2018-10-03T07:32:03.404Z,13.64
2018-10-03T07:33:03.396Z,13.67
2018-10-03T07:34:03.410Z,13.64
2018-10-03T07:35:03.392Z,13.60
2018-10-03T07:36:03.358Z,13.62
2018-10-03T07:37:03.350Z,13.54
2018-10-03T07:38:03.371Z,13.48
2018-10-03T07:39:03.350Z,13.54
2018-10-03T07:40:04.257Z,13.62
2018-10-03T07:41:03.317Z,13.62
2018-10-03T07:42:03.304Z,13.55
2018-10-03T07:43:03.278Z,13.55
2018-10-03T07:44:03.350Z,13.60
2018-10-03T07:45:03.274Z,13.82
2018-10-03T07:46:03.271Z,13.99
2018-10-03T07:47:03.237Z,14.06
2018-10-03T07:48:03.320Z,13.89
2018-10-03T07:49:03.216Z,13.79
2018-10-03T07:50:03.212Z,13.91
2018-10-03T07:51:03.197Z,13.91
2018-10-03T07:52:03.197Z,13.97
2018-10-03T07:53:03.172Z,14.03
2018-10-03T07:54:03.200Z,14.07
2018-10-03T07:55:03.179Z,14.14
2018-10-03T07:56:03.141Z,14.18
2018-10-03T07:57:03.187Z,14.14
2018-10-03T07:58:03.126Z,14.03
2018-10-03T07:59:03.193Z,14.09
2018-10-03T08:00:03.101Z,14.06
2018-10-03T08:01:03.116Z,13.96
2018-10-03T08:02:03.071Z,13.87
2018-10-03T08:03:03.067Z,13.82
2018-10-03T08:04:03.055Z,13.92
2018-10-03T08:05:03.041Z,13.99
2018-10-03T08:06:03.044Z,14.07
2018-10-03T08:07:03.045Z,14.18
2018-10-03T08:08:03.006Z,14.22
2018-10-03T08:09:02.998Z,14.21
2018-10-03T08:10:03.100Z,14.21
2018-10-03T08:11:02.998Z,14.18
2018-10-03T08:12:02.967Z,14.18
2018-10-03T08:13:02.984Z,14.15
2018-10-03T08:14:02.956Z,14.14
2018-10-03T08:15:02.925Z,14.09
2018-10-03T08:16:02.932Z,13.99
2018-10-03T08:17:02.941Z,14.06
2018-10-03T08:18:02.902Z,14.20
2018-10-03T08:19:02.897Z,14.06
2018-10-03T08:20:02.877Z,14.12
2018-10-03T08:21:02.879Z,14.04
2018-10-03T08:22:02.853Z,14.06
2018-10-03T08:23:02.844Z,14.12
2018-10-03T08:24:02.830Z,14.15
2018-10-03T08:25:02.833Z,14.18
2018-10-03T08:26:02.813Z,14.18
2018-10-03T08:27:02.793Z,14.15
2018-10-03T08:28:02.810Z,14.18
2018-10-03T08:29:02.774Z,14.28
2018-10-03T08:30:02.804Z,14.17
2018-10-03T08:31:02.769Z,14.21
2018-10-03T08:32:02.797Z,14.18
2018-10-03T08:33:02.926Z,14.28
2018-10-03T08:34:02.715Z,14.35
2018-10-03T08:35:02.732Z,14.35
2018-10-03T08:36:02.703Z,14.39
2018-10-03T08:37:02.693Z,14.33
2018-10-03T08:38:02.686Z,14.39
2018-10-03T08:39:02.677Z,14.37
2018-10-03T08:40:03.047Z,14.43
2018-10-03T08:41:02.648Z,14.54
2018-10-03T08:42:02.646Z,14.64
2018-10-03T08:43:02.643Z,14.84
2018-10-03T08:44:02.631Z,15.07
2018-10-03T08:45:02.600Z,15.10
2018-10-03T08:46:02.608Z,15.27
2018-10-03T08:47:02.576Z,15.31
2018-10-03T08:48:02.568Z,15.49
2018-10-03T08:49:02.572Z,15.65
2018-10-03T08:50:02.548Z,15.68
2018-10-03T08:51:02.540Z,15.62
2018-10-03T08:52:02.594Z,15.76
2018-10-03T08:53:02.524Z,15.84
2018-10-03T08:54:02.494Z,15.83
2018-10-03T08:55:02.490Z,15.74
2018-10-03T08:56:02.478Z,15.54
2018-10-03T08:57:02.478Z,15.51
2018-10-03T08:58:02.500Z,15.53
2018-10-03T08:59:02.442Z,15.64
2018-10-03T09:00:02.430Z,15.60
2018-10-03T09:01:02.416Z,15.54
2018-10-03T09:02:02.407Z,15.51
2018-10-03T09:03:02.416Z,15.27
2018-10-03T09:04:02.397Z,15.25
2018-10-03T09:05:02.390Z,15.28
2018-10-03T09:06:02.380Z,15.39
2018-10-03T09:07:02.357Z,15.29
2018-10-03T09:08:02.361Z,15.25
2018-10-03T09:09:02.335Z,15.21
2018-10-03T09:10:02.326Z,15.46
2018-10-03T09:11:02.313Z,15.54
2018-10-03T09:12:02.296Z,15.56
2018-10-03T09:13:02.284Z,15.51
2018-10-03T09:14:02.290Z,15.60
2018-10-03T09:15:02.267Z,15.80
2018-10-03T09:16:02.270Z,15.92
2018-10-03T09:17:02.252Z,15.80
2018-10-03T09:18:02.263Z,15.86
2018-10-03T09:19:02.232Z,15.87
2018-10-03T09:20:02.207Z,16.07
2018-10-03T09:21:02.207Z,15.93
2018-10-03T09:22:02.190Z,15.94
2018-10-03T09:23:02.187Z,15.94
2018-10-03T09:24:02.168Z,16.00
2018-10-03T09:25:02.152Z,15.92
2018-10-03T09:26:02.207Z,15.92
2018-10-03T09:27:02.143Z,16.02
2018-10-03T09:28:02.182Z,15.92
2018-10-03T09:29:02.186Z,15.97
2018-10-03T09:30:02.118Z,15.96
2018-10-03T09:31:02.090Z,15.96
2018-10-03T09:32:02.089Z,16.02
2018-10-03T09:33:02.076Z,15.90
2018-10-03T09:34:02.057Z,15.94
2018-10-03T09:35:02.050Z,15.86
2018-10-03T09:36:02.170Z,15.75
2018-10-03T09:37:02.044Z,15.51
2018-10-03T09:38:02.016Z,15.60
2018-10-03T09:39:02.027Z,15.54
2018-10-03T09:40:02.004Z,15.44
2018-10-03T09:41:01.986Z,15.49
2018-10-03T09:42:01.997Z,15.69
2018-10-03T09:43:01.961Z,15.82
2018-10-03T09:44:01.945Z,15.76
2018-10-03T09:45:01.938Z,15.68
2018-10-03T09:46:01.932Z,15.67
2018-10-03T09:47:01.956Z,15.75
2018-10-03T09:48:01.914Z,15.59
2018-10-03T09:49:01.954Z,15.71
2018-10-03T09:50:01.890Z,15.67
2018-10-03T09:51:01.873Z,15.83
2018-10-03T09:52:01.899Z,15.93
2018-10-03T09:53:01.896Z,16.17
2018-10-03T09:54:01.848Z,16.42
2018-10-03T09:55:01.858Z,16.35
2018-10-03T09:56:01.820Z,16.33
2018-10-03T09:57:01.864Z,16.34
2018-10-03T09:58:01.804Z,16.25
2018-10-03T09:59:01.791Z,16.01
2018-10-03T10:00:01.794Z,16.11
2018-10-03T10:01:01.775Z,15.87
2018-10-03T10:02:01.781Z,15.49
2018-10-03T10:03:01.760Z,15.46
2018-10-03T10:04:01.731Z,15.23
2018-10-03T10:05:01.722Z,15.19
2018-10-03T10:06:01.711Z,15.20
2018-10-03T10:07:01.752Z,15.17
2018-10-03T10:08:01.701Z,15.19
2018-10-03T10:09:01.675Z,15.19
2018-10-03T10:10:01.672Z,15.17
2018-10-03T10:11:01.716Z,15.25
2018-10-03T10:12:01.691Z,15.06
2018-10-03T10:13:01.645Z,15.19
2018-10-03T10:14:01.625Z,15.25
2018-10-03T10:15:01.633Z,15.29
2018-10-03T10:16:01.597Z,15.32
2018-10-03T10:17:01.601Z,15.36
2018-10-03T10:18:01.609Z,15.51
2018-10-03T10:19:01.573Z,15.56
2018-10-03T10:20:01.565Z,15.50
2018-10-03T10:21:01.563Z,15.56
2018-10-03T10:22:01.544Z,15.43
2018-10-03T10:23:01.538Z,15.41
2018-10-03T10:24:01.516Z,15.32
2018-10-03T10:25:01.521Z,15.29
2018-10-03T10:26:01.519Z,15.27
2018-10-03T10:27:01.480Z,15.28
2018-10-03T10:28:01.512Z,15.32
2018-10-03T10:29:01.475Z,15.31
2018-10-03T10:30:01.452Z,15.19
2018-10-03T10:31:01.459Z,15.28
2018-10-03T10:32:01.472Z,15.27
2018-10-03T10:33:01.581Z,15.09
2018-10-03T10:34:01.419Z,15.02
2018-10-03T10:35:01.390Z,15.02
2018-10-03T10:36:01.398Z,15.03
2018-10-03T10:37:01.374Z,15.03
2018-10-03T10:38:01.370Z,15.06
2018-10-03T10:39:01.354Z,15.03
2018-10-03T10:40:01.461Z,15.07
2018-10-03T10:41:01.359Z,15.07
2018-10-03T10:42:01.313Z,15.20
2018-10-03T10:43:01.304Z,15.25
2018-10-03T10:44:01.332Z,15.44
2018-10-03T10:45:01.290Z,15.56
2018-10-03T10:46:01.283Z,15.75
2018-10-03T10:47:01.253Z,15.75
2018-10-03T10:48:01.243Z,15.69
2018-10-03T10:49:01.236Z,15.68
2018-10-03T10:50:01.233Z,15.53
2018-10-03T10:51:01.254Z,15.50
2018-10-03T10:52:01.222Z,15.39
2018-10-03T10:53:01.197Z,15.53
2018-10-03T10:54:01.181Z,15.49
2018-10-03T10:55:01.163Z,15.49
2018-10-03T10:56:01.182Z,15.35
2018-10-03T10:57:01.169Z,15.41
2018-10-03T10:58:01.131Z,15.28
2018-10-03T10:59:01.117Z,15.23
2018-10-03T11:00:01.630Z,15.28
2018-10-03T11:01:01.143Z,15.21
2018-10-03T11:02:01.083Z,15.32
2018-10-03T11:03:01.087Z,15.43
2018-10-03T11:04:01.094Z,15.53
2018-10-03T11:05:01.061Z,15.62
2018-10-03T11:06:01.056Z,15.69
2018-10-03T11:07:01.031Z,15.68
2018-10-03T11:08:01.026Z,15.76
2018-10-03T11:09:01.010Z,15.82
2018-10-03T11:10:00.994Z,15.72
2018-10-03T11:11:00.997Z,15.78
2018-10-03T11:12:01.010Z,15.78
2018-10-03T11:13:00.962Z,15.71
2018-10-03T11:14:00.972Z,15.72
2018-10-03T11:15:00.955Z,15.39
2018-10-03T11:16:00.957Z,15.39
2018-10-03T11:17:00.955Z,15.36
2018-10-03T11:18:00.946Z,15.38
2018-10-03T11:19:00.905Z,15.41
2018-10-03T11:20:00.893Z,15.39
2018-10-03T11:21:00.884Z,15.54
2018-10-03T11:22:00.870Z,15.49
2018-10-03T11:23:00.854Z,15.51
2018-10-03T11:24:01.031Z,15.50
2018-10-03T11:25:00.919Z,15.54
2018-10-03T11:26:00.819Z,15.67
2018-10-03T11:27:00.805Z,15.56
2018-10-03T11:28:00.800Z,15.64
2018-10-03T11:29:00.785Z,15.69
2018-10-03T11:30:00.793Z,15.83
2018-10-03T11:31:00.760Z,15.89
2018-10-03T11:32:00.766Z,15.92
2018-10-03T11:33:00.743Z,15.94
2018-10-03T11:34:00.733Z,16.04
2018-10-03T11:35:00.718Z,16.14
2018-10-03T11:36:00.720Z,16.14
2018-10-03T11:37:00.701Z,16.30
2018-10-03T11:38:00.689Z,16.30
2018-10-03T11:39:00.671Z,16.27
2018-10-03T11:40:00.661Z,16.38
2018-10-03T11:41:00.659Z,16.46
2018-10-03T11:42:00.642Z,16.46
2018-10-03T11:43:00.628Z,16.46
2018-10-03T11:44:00.663Z,16.35
2018-10-03T11:45:00.615Z,16.52
2018-10-03T11:46:00.596Z,16.53
2018-10-03T11:47:00.652Z,16.57
2018-10-03T11:48:00.584Z,16.50
2018-10-03T11:49:00.573Z,16.46
2018-10-03T11:50:00.552Z,16.50
2018-10-03T11:51:00.546Z,16.56
2018-10-03T11:52:00.551Z,16.61
2018-10-03T11:53:00.539Z,16.53
2018-10-03T11:54:00.525Z,16.56
2018-10-03T11:55:00.497Z,16.53
2018-10-03T11:56:00.490Z,16.35
2018-10-03T11:57:00.512Z,16.25
2018-10-03T11:58:00.515Z,16.08
2018-10-03T11:59:00.469Z,15.94
2018-10-03T12:00:00.536Z,16.04
2018-10-03T12:01:00.436Z,15.89
2018-10-03T12:02:00.424Z,15.82
2018-10-03T12:03:00.640Z,15.67
2018-10-03T12:04:00.393Z,15.67
2018-10-03T12:05:00.388Z,15.56
2018-10-03T12:06:00.379Z,15.50
2018-10-03T12:07:00.368Z,15.49
2018-10-03T12:08:00.371Z,15.38
2018-10-03T12:09:00.352Z,15.35
2018-10-03T12:10:00.343Z,15.34
2018-10-03T12:11:00.337Z,15.28
2018-10-03T12:12:00.312Z,15.32
2018-10-03T12:13:00.341Z,15.31
2018-10-03T12:14:00.289Z,15.44
2018-10-03T12:15:00.291Z,15.47
2018-10-03T12:16:00.273Z,15.53
2018-10-03T12:17:00.252Z,15.51
2018-10-03T12:18:00.252Z,15.62
2018-10-03T12:19:00.254Z,15.54
2018-10-03T12:20:00.241Z,15.67
2018-10-03T12:21:00.222Z,15.60
2018-10-03T12:22:00.201Z,15.75
2018-10-03T12:23:00.203Z,15.78
2018-10-03T12:24:00.191Z,15.86
2018-10-03T12:25:05.008Z,15.86
2018-10-03T12:26:00.156Z,15.90
2018-10-03T12:27:00.148Z,15.86
2018-10-03T12:28:00.137Z,15.93
2018-10-03T12:29:00.184Z,15.92
2018-10-03T12:30:00.114Z,15.87
2018-10-03T12:31:00.098Z,15.93
2018-10-03T12:32:00.085Z,16.01
2018-10-03T12:33:00.081Z,16.00
2018-10-03T12:34:00.080Z,16.04
2018-10-03T12:35:00.054Z,16.21
2018-10-03T12:36:00.076Z,16.11
2018-10-03T12:37:00.040Z,16.20
2018-10-03T12:38:00.031Z,16.31
2018-10-03T12:39:00.029Z,16.34
2018-10-03T12:40:00.003Z,16.38
2018-10-03T12:40:59.995Z,16.38
2018-10-03T12:41:59.983Z,16.33
2018-10-03T12:42:59.985Z,16.31
2018-10-03T12:43:59.997Z,16.38
2018-10-03T12:44:59.968Z,16.38
2018-10-03T12:45:59.952Z,16.28
2018-10-03T12:46:59.975Z,16.23
2018-10-03T12:47:59.935Z,16.12
2018-10-03T12:48:59.925Z,16.17
2018-10-03T12:49:59.902Z,16.09
2018-10-03T12:50:59.892Z,15.93
2018-10-03T12:51:59.875Z,16.02